sensor_id;sensor_type;location;lat;lon;timestamp;pressure;altitude;pressure_sealevel;temperature;humidity
8039;BME280;4062;49.844;8.120;2023-01-29T00:01:30;100570.25;;;13.52;55.10
8039;BME280;4062;49.844;8.120;2023-01-29T00:03:32;100578.22;;;13.50;55.22
8039;BME280;4062;49.844;8.120;2023-01-29T00:05:33;100573.78;;;13.51;54.94
8039;BME280;4062;49.844;8.120;2023-01-29T00:07:34;100573.78;;;13.51;55.13
8039;BME280;4062;49.844;8.120;2023-01-29T00:09:34;100572.91;;;13.50;54.97
8039;BME280;4062;49.844;8.120;2023-01-29T00:11:35;100570.25;;;13.50;55.09
8039;BME280;4062;49.844;8.120;2023-01-29T00:13:35;100579.09;;;13.51;55.36
8039;BME280;4062;49.844;8.120;2023-01-29T00:15:36;100576.47;;;13.49;55.30
8039;BME280;4062;49.844;8.120;2023-01-29T00:17:36;100580.91;;;13.49;54.93
8039;BME280;4062;49.844;8.120;2023-01-29T00:19:37;100581.78;;;13.49;54.98
8039;BME280;4062;49.844;8.120;2023-01-29T00:21:37;100574.69;;;13.50;55.01
8039;BME280;4062;49.844;8.120;2023-01-29T00:23:38;100580.91;;;13.49;54.79
8039;BME280;4062;49.844;8.120;2023-01-29T00:25:38;100574.72;;;13.48;55.03
8039;BME280;4062;49.844;8.120;2023-01-29T00:27:38;100579.16;;;13.48;55.06
8039;BME280;4062;49.844;8.120;2023-01-29T00:29:39;100586.22;;;13.49;54.99
8039;BME280;4062;49.844;8.120;2023-01-29T00:31:43;100582.69;;;13.48;54.92
8039;BME280;4062;49.844;8.120;2023-01-29T00:33:43;100584.44;;;13.48;54.98
8039;BME280;4062;49.844;8.120;2023-01-29T00:35:45;100579.16;;;13.48;55.06
8039;BME280;4062;49.844;8.120;2023-01-29T00:37:45;100583.59;;;13.47;55.13
8039;BME280;4062;49.844;8.120;2023-01-29T00:39:46;100592.41;;;13.48;54.96
8039;BME280;4062;49.844;8.120;2023-01-29T00:41:46;100599.53;;;13.47;55.02
8039;BME280;4062;49.844;8.120;2023-01-29T00:44:06;100603.03;;;13.48;54.99
8039;BME280;4062;49.844;8.120;2023-01-29T00:46:25;100602.19;;;13.47;55.18
8039;BME280;4062;49.844;8.120;2023-01-29T00:48:25;100602.19;;;13.47;54.95
8039;BME280;4062;49.844;8.120;2023-01-29T00:50:26;100593.31;;;13.47;54.97
8039;BME280;4062;49.844;8.120;2023-01-29T00:52:27;100593.34;;;13.45;54.96
8039;BME280;4062;49.844;8.120;2023-01-29T00:54:27;100588.91;;;13.45;54.93
8039;BME280;4062;49.844;8.120;2023-01-29T00:56:29;100591.56;;;13.45;55.13
8039;BME280;4062;49.844;8.120;2023-01-29T00:58:29;100595.16;;;13.44;54.92
8039;BME280;4062;49.844;8.120;2023-01-29T01:00:33;100595.16;;;13.44;55.11
8039;BME280;4062;49.844;8.120;2023-01-29T01:02:34;100588.94;;;13.44;55.06
8039;BME280;4062;49.844;8.120;2023-01-29T01:04:53;100588.03;;;13.45;55.10
8039;BME280;4062;49.844;8.120;2023-01-29T01:06:53;100577.47;;;13.43;55.07
8039;BME280;4062;49.844;8.120;2023-01-29T01:08:54;100580.13;;;13.43;55.09
8039;BME280;4062;49.844;8.120;2023-01-29T01:11:12;100580.13;;;13.43;55.04
8039;BME280;4062;49.844;8.120;2023-01-29T01:13:13;100581.88;;;13.43;55.08
8039;BME280;4062;49.844;8.120;2023-01-29T01:15:14;100582.78;;;13.43;54.96
8039;BME280;4062;49.844;8.120;2023-01-29T01:17:14;100587.19;;;13.43;55.00
8039;BME280;4062;49.844;8.120;2023-01-29T01:19:15;100581.00;;;13.42;55.00
8039;BME280;4062;49.844;8.120;2023-01-29T01:21:16;100582.78;;;13.43;55.00
8039;BME280;4062;49.844;8.120;2023-01-29T01:23:19;100581.00;;;13.42;55.14
8039;BME280;4062;49.844;8.120;2023-01-29T01:25:21;100578.34;;;13.42;54.99
8039;BME280;4062;49.844;8.120;2023-01-29T01:27:23;100574.81;;;13.42;54.89
8039;BME280;4062;49.844;8.120;2023-01-29T01:29:24;100563.34;;;13.41;54.82
8039;BME280;4062;49.844;8.120;2023-01-29T01:31:25;100568.63;;;13.41;55.15
8039;BME280;4062;49.844;8.120;2023-01-29T01:33:25;100557.13;;;13.41;54.80
8039;BME280;4062;49.844;8.120;2023-01-29T01:35:26;100558.03;;;13.41;55.03
8039;BME280;4062;49.844;8.120;2023-01-29T01:37:26;100559.78;;;13.41;54.91
8039;BME280;4062;49.844;8.120;2023-01-29T01:39:27;100558.88;;;13.42;54.93
8039;BME280;4062;49.844;8.120;2023-01-29T01:41:28;100554.47;;;13.41;55.08
8039;BME280;4062;49.844;8.120;2023-01-29T01:43:46;100556.25;;;13.40;55.24
8039;BME280;4062;49.844;8.120;2023-01-29T01:45:47;100558.03;;;13.41;55.27
8039;BME280;4062;49.844;8.120;2023-01-29T01:47:58;100556.25;;;13.40;55.18
8039;BME280;4062;49.844;8.120;2023-01-29T01:50:29;100550.09;;;13.40;55.25
8039;BME280;4062;49.844;8.120;2023-01-29T01:52:32;100544.78;;;13.40;55.21
8039;BME280;4062;49.844;8.120;2023-01-29T01:54:35;100542.09;;;13.38;55.09
8039;BME280;4062;49.844;8.120;2023-01-29T01:56:40;100540.38;;;13.39;55.21
8039;BME280;4062;49.844;8.120;2023-01-29T01:58:51;100525.31;;;13.38;55.18
8039;BME280;4062;49.844;8.120;2023-01-29T02:00:54;100529.72;;;13.37;55.25
8039;BME280;4062;49.844;8.120;2023-01-29T02:02:55;100525.31;;;13.38;55.16
8039;BME280;4062;49.844;8.120;2023-01-29T02:05:14;100524.41;;;13.37;55.16
8039;BME280;4062;49.844;8.120;2023-01-29T02:07:33;100528.88;;;13.37;55.34
8039;BME280;4062;49.844;8.120;2023-01-29T02:10:04;100519.09;;;13.37;55.32
8039;BME280;4062;49.844;8.120;2023-01-29T02:12:10;100511.19;;;13.36;55.18
8039;BME280;4062;49.844;8.120;2023-01-29T02:14:12;100514.69;;;13.36;55.17
8039;BME280;4062;49.844;8.120;2023-01-29T02:16:12;100520.91;;;13.37;55.10
8039;BME280;4062;49.844;8.120;2023-01-29T02:18:15;100512.94;;;13.37;55.16
8039;BME280;4062;49.844;8.120;2023-01-29T02:20:29;100509.41;;;13.36;55.07
8039;BME280;4062;49.844;8.120;2023-01-29T02:25:11;100504.09;;;13.36;55.33
8039;BME280;4062;49.844;8.120;2023-01-29T02:27:34;100511.19;;;13.36;55.17
8039;BME280;4062;49.844;8.120;2023-01-29T02:29:58;100510.31;;;13.35;55.25
8039;BME280;4062;49.844;8.120;2023-01-29T02:32:34;100509.41;;;13.36;55.30
8039;BME280;4062;49.844;8.120;2023-01-29T02:35:28;100505.91;;;13.34;55.22
8039;BME280;4062;49.844;8.120;2023-01-29T02:37:28;100512.09;;;13.35;55.28
8039;BME280;4062;49.844;8.120;2023-01-29T02:39:47;100505.91;;;13.34;55.36
8039;BME280;4062;49.844;8.120;2023-01-29T02:41:59;100519.19;;;13.34;55.27
8039;BME280;4062;49.844;8.120;2023-01-29T02:44:22;100519.19;;;13.34;55.21
8039;BME280;4062;49.844;8.120;2023-01-29T02:46:34;100525.34;;;13.35;55.07
8039;BME280;4062;49.844;8.120;2023-01-29T02:48:40;100527.16;;;13.34;55.12
8039;BME280;4062;49.844;8.120;2023-01-29T02:50:57;100524.50;;;13.34;55.13
8039;BME280;4062;49.844;8.120;2023-01-29T02:53:05;100538.63;;;13.35;55.11
8039;BME280;4062;49.844;8.120;2023-01-29T02:55:11;100538.63;;;13.35;55.35
8039;BME280;4062;49.844;8.120;2023-01-29T02:57:25;100551.03;;;13.34;55.20
8039;BME280;4062;49.844;8.120;2023-01-29T02:59:34;100551.03;;;13.34;55.27
8039;BME280;4062;49.844;8.120;2023-01-29T03:01:50;100551.94;;;13.33;55.32
8039;BME280;4062;49.844;8.120;2023-01-29T03:03:56;100561.66;;;13.34;55.29
8039;BME280;4062;49.844;8.120;2023-01-29T03:06:17;100555.44;;;13.34;55.27
8039;BME280;4062;49.844;8.120;2023-01-29T03:08:30;100554.59;;;13.33;55.34
8039;BME280;4062;49.844;8.120;2023-01-29T03:10:49;100543.09;;;13.33;55.14
8039;BME280;4062;49.844;8.120;2023-01-29T03:13:05;100551.03;;;13.33;55.20
8039;BME280;4062;49.844;8.120;2023-01-29T03:15:12;100549.28;;;13.33;55.50
8039;BME280;4062;49.844;8.120;2023-01-29T03:17:23;100543.09;;;13.33;55.15
8039;BME280;4062;49.844;8.120;2023-01-29T03:19:33;100533.34;;;13.32;55.20
8039;BME280;4062;49.844;8.120;2023-01-29T03:21:43;100538.66;;;13.32;55.38
8039;BME280;4062;49.844;8.120;2023-01-29T03:23:54;100538.66;;;13.32;55.16
8039;BME280;4062;49.844;8.120;2023-01-29T03:26:15;100532.50;;;13.31;55.17
8039;BME280;4062;49.844;8.120;2023-01-29T03:28:38;100541.31;;;13.32;55.34
8039;BME280;4062;49.844;8.120;2023-01-29T03:31:02;100543.13;;;13.31;55.07
8039;BME280;4062;49.844;8.120;2023-01-29T03:33:30;100542.25;;;13.31;55.16
8039;BME280;4062;49.844;8.120;2023-01-29T03:35:35;100555.53;;;13.31;55.11
8039;BME280;4062;49.844;8.120;2023-01-29T03:37:42;100556.38;;;13.31;55.34
8039;BME280;4062;49.844;8.120;2023-01-29T03:39:45;100557.28;;;13.30;55.36
8039;BME280;4062;49.844;8.120;2023-01-29T03:42:16;100552.88;;;13.31;55.28
8039;BME280;4062;49.844;8.120;2023-01-29T03:46:30;100557.28;;;13.30;55.26
8039;BME280;4062;49.844;8.120;2023-01-29T03:48:34;100560.84;;;13.29;55.18
8039;BME280;4062;49.844;8.120;2023-01-29T03:53:05;100559.06;;;13.29;55.37
8039;BME280;4062;49.844;8.120;2023-01-29T03:55:22;100541.38;;;13.30;55.33
8039;BME280;4062;49.844;8.120;2023-01-29T03:57:44;100543.16;;;13.29;55.24
8039;BME280;4062;49.844;8.120;2023-01-29T04:02:13;100543.16;;;13.29;55.23
8039;BME280;4062;49.844;8.120;2023-01-29T04:04:41;100543.16;;;13.28;55.31
8039;BME280;4062;49.844;8.120;2023-01-29T04:06:44;100543.16;;;13.28;55.41
8039;BME280;4062;49.844;8.120;2023-01-29T04:11:08;100559.09;;;13.28;55.29
8039;BME280;4062;49.844;8.120;2023-01-29T04:13:12;100552.03;;;13.27;55.40
8039;BME280;4062;49.844;8.120;2023-01-29T04:15:17;100545.81;;;13.28;55.39
8039;BME280;4062;49.844;8.120;2023-01-29T04:17:24;100547.59;;;13.27;55.33
8039;BME280;4062;49.844;8.120;2023-01-29T04:19:37;100542.28;;;13.27;55.27
8039;BME280;4062;49.844;8.120;2023-01-29T04:21:39;100538.75;;;13.27;55.27
8039;BME280;4062;49.844;8.120;2023-01-29T04:23:40;100530.78;;;13.27;55.37
8039;BME280;4062;49.844;8.120;2023-01-29T04:25:45;100523.72;;;13.27;55.11
8039;BME280;4062;49.844;8.120;2023-01-29T04:28:12;100514.00;;;13.26;55.31
8039;BME280;4062;49.844;8.120;2023-01-29T04:34:52;100519.31;;;13.26;55.29
8039;BME280;4062;49.844;8.120;2023-01-29T04:38:18;100522.81;;;13.27;55.61
8039;BME280;4062;49.844;8.120;2023-01-29T04:39:56;100507.84;;;13.26;55.09
8039;BME280;4062;49.844;8.120;2023-01-29T04:42:11;100520.22;;;13.25;55.20
8039;BME280;4062;49.844;8.120;2023-01-29T04:51:02;100526.41;;;13.26;55.25
8039;BME280;4062;49.844;8.120;2023-01-29T04:53:49;100529.97;;;13.25;55.23
8039;BME280;4062;49.844;8.120;2023-01-29T04:56:05;100540.56;;;13.25;55.40
8039;BME280;4062;49.844;8.120;2023-01-29T04:58:13;100535.28;;;13.25;55.18
8039;BME280;4062;49.844;8.120;2023-01-29T05:00:25;100537.94;;;13.25;55.30
8039;BME280;4062;49.844;8.120;2023-01-29T05:02:28;100529.97;;;13.25;55.30
8039;BME280;4062;49.844;8.120;2023-01-29T05:04:31;100529.06;;;13.24;55.10
8039;BME280;4062;49.844;8.120;2023-01-29T05:06:34;100529.97;;;13.25;55.15
8039;BME280;4062;49.844;8.120;2023-01-29T05:08:37;100524.66;;;13.23;55.40
8039;BME280;4062;49.844;8.120;2023-01-29T05:10:39;100536.16;;;13.24;55.31
8039;BME280;4062;49.844;8.120;2023-01-29T05:12:40;100529.06;;;13.24;55.21
8039;BME280;4062;49.844;8.120;2023-01-29T05:14:44;100530.84;;;13.24;55.13
8039;BME280;4062;49.844;8.120;2023-01-29T05:16:52;100529.97;;;13.23;55.28
8039;BME280;4062;49.844;8.120;2023-01-29T05:18:54;100538.81;;;13.24;55.42
8039;BME280;4062;49.844;8.120;2023-01-29T05:20:55;100537.94;;;13.23;55.41
8039;BME280;4062;49.844;8.120;2023-01-29T05:22:56;100540.59;;;13.23;55.30
8039;BME280;4062;49.844;8.120;2023-01-29T05:24:57;100541.47;;;13.24;55.29
8039;BME280;4062;49.844;8.120;2023-01-29T05:26:57;100535.28;;;13.23;54.75
8039;BME280;4062;49.844;8.120;2023-01-29T05:29:16;100532.63;;;13.23;55.27
8039;BME280;4062;49.844;8.120;2023-01-29T05:31:17;100536.19;;;13.22;55.35
8039;BME280;4062;49.844;8.120;2023-01-29T05:33:28;100532.63;;;13.23;55.38
8039;BME280;4062;49.844;8.120;2023-01-29T05:35:30;100524.66;;;13.23;55.17
8039;BME280;4062;49.844;8.120;2023-01-29T05:37:30;100522.03;;;13.22;55.31
8039;BME280;4062;49.844;8.120;2023-01-29T05:39:31;100520.28;;;13.22;55.37
8039;BME280;4062;49.844;8.120;2023-01-29T05:41:32;100516.72;;;13.22;55.35
8039;BME280;4062;49.844;8.120;2023-01-29T05:43:32;100515.84;;;13.23;55.50
8039;BME280;4062;49.844;8.120;2023-01-29T05:45:33;100507.88;;;13.23;55.34
8039;BME280;4062;49.844;8.120;2023-01-29T05:47:33;100514.06;;;13.22;55.59
8039;BME280;4062;49.844;8.120;2023-01-29T05:49:34;100521.13;;;13.23;55.35
8039;BME280;4062;49.844;8.120;2023-01-29T05:51:34;100515.84;;;13.23;55.24
8039;BME280;4062;49.844;8.120;2023-01-29T05:53:35;100516.72;;;13.22;55.16
8039;BME280;4062;49.844;8.120;2023-01-29T05:55:35;100516.72;;;13.22;55.24
8039;BME280;4062;49.844;8.120;2023-01-29T05:57:36;100518.53;;;13.21;55.12
8039;BME280;4062;49.844;8.120;2023-01-29T05:59:38;100520.28;;;13.22;55.22
8039;BME280;4062;49.844;8.120;2023-01-29T06:01:38;100526.50;;;13.21;55.18
8039;BME280;4062;49.844;8.120;2023-01-29T06:03:40;100528.25;;;13.22;55.28
8039;BME280;4062;49.844;8.120;2023-01-29T06:05:40;100529.13;;;13.21;55.07
8039;BME280;4062;49.844;8.120;2023-01-29T06:07:40;100537.97;;;13.22;55.23
8039;BME280;4062;49.844;8.120;2023-01-29T06:09:44;100534.44;;;13.21;55.30
8039;BME280;4062;49.844;8.120;2023-01-29T06:11:44;100537.09;;;13.21;55.26
8039;BME280;4062;49.844;8.120;2023-01-29T06:13:45;100527.38;;;13.20;55.11
8039;BME280;4062;49.844;8.120;2023-01-29T06:15:45;100516.78;;;13.20;55.21
8039;BME280;4062;49.844;8.120;2023-01-29T06:17:46;100522.94;;;13.21;55.36
8039;BME280;4062;49.844;8.120;2023-01-29T06:19:46;100530.03;;;13.20;55.24
8039;BME280;4062;49.844;8.120;2023-01-29T06:21:47;100526.50;;;13.21;55.19
8039;BME280;4062;49.844;8.120;2023-01-29T06:23:47;100522.94;;;13.21;55.43
8039;BME280;4062;49.844;8.120;2023-01-29T06:25:48;100531.81;;;13.20;55.36
8039;BME280;4062;49.844;8.120;2023-01-29T06:27:51;100526.50;;;13.20;55.24
8039;BME280;4062;49.844;8.120;2023-01-29T06:29:52;100532.69;;;13.20;55.24
8039;BME280;4062;49.844;8.120;2023-01-29T06:31:52;100536.22;;;13.21;55.21
8039;BME280;4062;49.844;8.120;2023-01-29T06:33:52;100528.25;;;13.21;55.41
8039;BME280;4062;49.844;8.120;2023-01-29T06:35:59;100523.84;;;13.20;55.12
8039;BME280;4062;49.844;8.120;2023-01-29T06:38:00;100512.34;;;13.19;55.10
8039;BME280;4062;49.844;8.120;2023-01-29T06:40:01;100510.56;;;13.20;55.44
8039;BME280;4062;49.844;8.120;2023-01-29T06:42:02;100517.66;;;13.19;55.39
8039;BME280;4062;49.844;8.120;2023-01-29T06:44:02;100507.94;;;13.18;55.37
8039;BME280;4062;49.844;8.120;2023-01-29T06:46:03;100507.06;;;13.19;55.37
8039;BME280;4062;49.844;8.120;2023-01-29T06:48:05;100500.84;;;13.19;55.31
8039;BME280;4062;49.844;8.120;2023-01-29T06:50:06;100513.25;;;13.18;55.47
8039;BME280;4062;49.844;8.120;2023-01-29T06:52:06;100518.56;;;13.18;55.11
8039;BME280;4062;49.844;8.120;2023-01-29T06:54:08;100515.00;;;13.19;55.31
8039;BME280;4062;49.844;8.120;2023-01-29T06:56:09;100519.44;;;13.19;55.39
8039;BME280;4062;49.844;8.120;2023-01-29T06:58:11;100513.25;;;13.18;55.31
8039;BME280;4062;49.844;8.120;2023-01-29T07:00:12;100514.13;;;13.19;55.25
8039;BME280;4062;49.844;8.120;2023-01-29T07:02:13;100523.00;;;13.18;55.31
8039;BME280;4062;49.844;8.120;2023-01-29T07:04:13;100524.75;;;13.19;55.11
8039;BME280;4062;49.844;8.120;2023-01-29T07:06:14;100519.44;;;13.19;55.31
8039;BME280;4062;49.844;8.120;2023-01-29T07:08:14;100520.34;;;13.18;55.40
8039;BME280;4062;49.844;8.120;2023-01-29T07:10:15;100516.78;;;13.19;55.06
8039;BME280;4062;49.844;8.120;2023-01-29T07:12:15;100521.22;;;13.18;55.10
8039;BME280;4062;49.844;8.120;2023-01-29T07:14:16;100517.72;;;13.18;55.28
8039;BME280;4062;49.844;8.120;2023-01-29T07:16:16;100530.97;;;13.18;55.22
8039;BME280;4062;49.844;8.120;2023-01-29T07:18:18;100526.53;;;13.18;55.14
8039;BME280;4062;49.844;8.120;2023-01-29T07:20:18;100530.97;;;13.18;55.19
8039;BME280;4062;49.844;8.120;2023-01-29T07:22:19;100531.84;;;13.18;55.23
8039;BME280;4062;49.844;8.120;2023-01-29T07:24:19;100531.84;;;13.18;55.25
8039;BME280;4062;49.844;8.120;2023-01-29T07:26:20;100541.59;;;13.18;55.32
8039;BME280;4062;49.844;8.120;2023-01-29T07:28:20;100546.91;;;13.18;55.15
8039;BME280;4062;49.844;8.120;2023-01-29T07:30:21;100550.41;;;13.18;55.16
8039;BME280;4062;49.844;8.120;2023-01-29T07:32:21;100553.06;;;13.18;55.11
8039;BME280;4062;49.844;8.120;2023-01-29T07:34:22;100547.78;;;13.17;55.27
8039;BME280;4062;49.844;8.120;2023-01-29T07:36:22;100553.97;;;13.17;55.07
8039;BME280;4062;49.844;8.120;2023-01-29T07:38:23;100556.63;;;13.17;55.28
8039;BME280;4062;49.844;8.120;2023-01-29T07:40:23;100557.50;;;13.18;55.01
8039;BME280;4062;49.844;8.120;2023-01-29T07:42:24;100564.56;;;13.17;55.24
8039;BME280;4062;49.844;8.120;2023-01-29T07:44:24;100567.22;;;13.17;55.35
8039;BME280;4062;49.844;8.120;2023-01-29T07:46:25;100570.78;;;13.16;55.19
8039;BME280;4062;49.844;8.120;2023-01-29T07:48:25;100571.69;;;13.17;55.19
8039;BME280;4062;49.844;8.120;2023-01-29T07:50:26;100566.38;;;13.15;55.16
8039;BME280;4062;49.844;8.120;2023-01-29T07:52:31;100563.72;;;13.17;55.17
8039;BME280;4062;49.844;8.120;2023-01-29T07:54:32;100562.81;;;13.16;55.19
8039;BME280;4062;49.844;8.120;2023-01-29T07:56:32;100564.63;;;13.16;55.42
8039;BME280;4062;49.844;8.120;2023-01-29T07:58:32;100558.41;;;13.17;55.15
8039;BME280;4062;49.844;8.120;2023-01-29T08:00:33;100554.84;;;13.16;55.07
8039;BME280;4062;49.844;8.120;2023-01-29T08:02:33;100551.34;;;13.16;55.15
8039;BME280;4062;49.844;8.120;2023-01-29T08:04:34;100552.19;;;13.16;54.93
8039;BME280;4062;49.844;8.120;2023-01-29T08:06:34;100551.34;;;13.16;55.23
8039;BME280;4062;49.844;8.120;2023-01-29T08:08:35;100543.38;;;13.16;55.29
8039;BME280;4062;49.844;8.120;2023-01-29T08:10:36;100534.53;;;13.15;55.23
8039;BME280;4062;49.844;8.120;2023-01-29T08:12:37;100525.72;;;13.14;55.24
8039;BME280;4062;49.844;8.120;2023-01-29T08:14:38;100534.53;;;13.15;55.15
8039;BME280;4062;49.844;8.120;2023-01-29T08:16:38;100537.19;;;13.15;55.32
8039;BME280;4062;49.844;8.120;2023-01-29T08:18:39;100546.03;;;13.16;55.12
8039;BME280;4062;49.844;8.120;2023-01-29T08:20:43;100538.06;;;13.16;55.04
8039;BME280;4062;49.844;8.120;2023-01-29T08:22:43;100543.38;;;13.16;55.06
8039;BME280;4062;49.844;8.120;2023-01-29T08:24:47;100546.94;;;13.14;55.19
8039;BME280;4062;49.844;8.120;2023-01-29T08:26:50;100550.44;;;13.15;55.20
8039;BME280;4062;49.844;8.120;2023-01-29T08:28:50;100547.78;;;13.15;55.13
8039;BME280;4062;49.844;8.120;2023-01-29T08:30:51;100550.44;;;13.15;55.20
8039;BME280;4062;49.844;8.120;2023-01-29T08:32:51;100561.06;;;13.15;54.99
8039;BME280;4062;49.844;8.120;2023-01-29T08:34:52;100562.84;;;13.14;55.01
8039;BME280;4062;49.844;8.120;2023-01-29T08:36:52;100553.09;;;13.15;55.10
8039;BME280;4062;49.844;8.120;2023-01-29T08:38:53;100546.03;;;13.14;54.95
8039;BME280;4062;49.844;8.120;2023-01-29T08:40:53;100536.31;;;13.14;55.19
8039;BME280;4062;49.844;8.120;2023-01-29T08:42:58;100537.22;;;13.13;55.33
8039;BME280;4062;49.844;8.120;2023-01-29T08:44:58;100535.44;;;13.14;54.81
8039;BME280;4062;49.844;8.120;2023-01-29T08:46:59;100523.06;;;13.14;55.09
8039;BME280;4062;49.844;8.120;2023-01-29T08:48:59;100522.16;;;13.14;55.20
8039;BME280;4062;49.844;8.120;2023-01-29T08:51:00;100518.66;;;13.13;55.34
8039;BME280;4062;49.844;8.120;2023-01-29T08:53:06;100530.13;;;13.14;55.26
8039;BME280;4062;49.844;8.120;2023-01-29T08:55:07;100531.00;;;13.14;55.06
8039;BME280;4062;49.844;8.120;2023-01-29T08:57:08;100535.44;;;13.14;55.07
8039;BME280;4062;49.844;8.120;2023-01-29T08:59:09;100535.44;;;13.14;55.13
8039;BME280;4062;49.844;8.120;2023-01-29T09:01:12;100552.25;;;13.14;55.17
8039;BME280;4062;49.844;8.120;2023-01-29T09:03:12;100552.25;;;13.14;55.20
8039;BME280;4062;49.844;8.120;2023-01-29T09:05:13;100553.13;;;13.13;55.19
8039;BME280;4062;49.844;8.120;2023-01-29T09:07:14;100552.28;;;13.13;55.22
8039;BME280;4062;49.844;8.120;2023-01-29T09:09:14;100565.50;;;13.14;54.93
8039;BME280;4062;49.844;8.120;2023-01-29T09:11:15;100576.13;;;13.14;54.99
8039;BME280;4062;49.844;8.120;2023-01-29T09:13:15;100574.31;;;13.17;55.26
8039;BME280;4062;49.844;8.120;2023-01-29T09:15:16;100569.03;;;13.17;55.14
8039;BME280;4062;49.844;8.120;2023-01-29T09:17:16;100575.16;;;13.19;55.32
8039;BME280;4062;49.844;8.120;2023-01-29T09:19:17;100574.25;;;13.20;55.06
8039;BME280;4062;49.844;8.120;2023-01-29T09:21:17;100576.91;;;13.21;55.22
8039;BME280;4062;49.844;8.120;2023-01-29T09:23:18;100575.09;;;13.23;55.34
8039;BME280;4062;49.844;8.120;2023-01-29T09:25:19;100578.59;;;13.25;55.34
8039;BME280;4062;49.844;8.120;2023-01-29T09:27:19;100570.59;;;13.27;55.19
8039;BME280;4062;49.844;8.120;2023-01-29T09:29:20;100578.56;;;13.28;55.30
8039;BME280;4062;49.844;8.120;2023-01-29T09:31:20;100580.28;;;13.31;55.39
8039;BME280;4062;49.844;8.120;2023-01-29T09:33:21;100581.13;;;13.32;55.21
8039;BME280;4062;49.844;8.120;2023-01-29T09:35:23;100588.19;;;13.34;55.36
8039;BME280;4062;49.844;8.120;2023-01-29T09:37:24;100589.97;;;13.35;55.34
8039;BME280;4062;49.844;8.120;2023-01-29T09:39:24;100581.91;;;13.38;55.30
8039;BME280;4062;49.844;8.120;2023-01-29T09:43:56;100580.13;;;13.43;55.46
8039;BME280;4062;49.844;8.120;2023-01-29T09:46:17;100580.06;;;13.45;55.47
8039;BME280;4062;49.844;8.120;2023-01-29T09:48:21;100585.34;;;13.48;55.42
8039;BME280;4062;49.844;8.120;2023-01-29T09:50:40;100587.06;;;13.51;55.50
8039;BME280;4062;49.844;8.120;2023-01-29T09:53:02;100580.81;;;13.53;55.08
8039;BME280;4062;49.844;8.120;2023-01-29T09:57:49;100588.72;;;13.58;55.39
8039;BME280;4062;49.844;8.120;2023-01-29T09:59:51;100589.56;;;13.60;55.43
8039;BME280;4062;49.844;8.120;2023-01-29T10:02:05;100589.53;;;13.62;55.43
8039;BME280;4062;49.844;8.120;2023-01-29T10:07:03;100589.47;;;13.65;55.54
8039;BME280;4062;49.844;8.120;2023-01-29T10:12:00;100585.94;;;13.66;55.46
8039;BME280;4062;49.844;8.120;2023-01-29T10:14:15;100578.84;;;13.65;55.38
8039;BME280;4062;49.844;8.120;2023-01-29T10:18:56;100570.84;;;13.66;55.27
8039;BME280;4062;49.844;8.120;2023-01-29T10:23:29;100576.16;;;13.66;55.31
8039;BME280;4062;49.844;8.120;2023-01-29T10:25:33;100576.16;;;13.66;55.33
8039;BME280;4062;49.844;8.120;2023-01-29T10:27:39;100576.16;;;13.66;55.44
8039;BME280;4062;49.844;8.120;2023-01-29T10:29:42;100573.56;;;13.65;55.45
8039;BME280;4062;49.844;8.120;2023-01-29T10:31:45;100580.63;;;13.66;55.34
8039;BME280;4062;49.844;8.120;2023-01-29T10:33:58;100564.69;;;13.64;55.21
8039;BME280;4062;49.844;8.120;2023-01-29T10:36:03;100560.28;;;13.65;55.23
8039;BME280;4062;49.844;8.120;2023-01-29T10:40:58;100540.81;;;13.63;55.25
8039;BME280;4062;49.844;8.120;2023-01-29T10:43:16;100535.50;;;13.63;55.35
8039;BME280;4062;49.844;8.120;2023-01-29T10:54:28;100509.91;;;13.60;55.28
8039;BME280;4062;49.844;8.120;2023-01-29T10:56:54;100504.59;;;13.60;55.32
8039;BME280;4062;49.844;8.120;2023-01-29T11:01:21;100506.34;;;13.59;55.22
8039;BME280;4062;49.844;8.120;2023-01-29T11:03:27;100489.56;;;13.59;55.36
8039;BME280;4062;49.844;8.120;2023-01-29T11:05:37;100484.25;;;13.59;55.31
8039;BME280;4062;49.844;8.120;2023-01-29T11:07:41;100477.19;;;13.58;55.26
8039;BME280;4062;49.844;8.120;2023-01-29T11:09:48;100471.00;;;13.57;55.32
8039;BME280;4062;49.844;8.120;2023-01-29T11:11:58;100470.13;;;13.57;55.09
8039;BME280;4062;49.844;8.120;2023-01-29T11:14:04;100471.91;;;13.56;55.57
8039;BME280;4062;49.844;8.120;2023-01-29T11:16:08;100463.94;;;13.56;55.27
8039;BME280;4062;49.844;8.120;2023-01-29T11:18:11;100463.03;;;13.57;55.13
8039;BME280;4062;49.844;8.120;2023-01-29T11:20:26;100458.63;;;13.56;55.20
8039;BME280;4062;49.844;8.120;2023-01-29T11:22:28;100463.06;;;13.56;55.18
8039;BME280;4062;49.844;8.120;2023-01-29T11:24:29;100456.00;;;13.55;55.20
8039;BME280;4062;49.844;8.120;2023-01-29T11:26:33;100453.34;;;13.55;55.18
8039;BME280;4062;49.844;8.120;2023-01-29T11:28:46;100456.88;;;13.55;55.18
8039;BME280;4062;49.844;8.120;2023-01-29T11:30:48;100452.47;;;13.54;55.13
8039;BME280;4062;49.844;8.120;2023-01-29T11:33:20;100454.28;;;13.54;55.17
8039;BME280;4062;49.844;8.120;2023-01-29T11:35:24;100449.81;;;13.54;55.26
8039;BME280;4062;49.844;8.120;2023-01-29T11:37:35;100448.97;;;13.54;54.77
8039;BME280;4062;49.844;8.120;2023-01-29T11:39:42;100443.66;;;13.54;55.27
8039;BME280;4062;49.844;8.120;2023-01-29T11:41:56;100441.84;;;13.54;55.15
8039;BME280;4062;49.844;8.120;2023-01-29T11:43:57;100437.41;;;13.55;55.39
8039;BME280;4062;49.844;8.120;2023-01-29T11:46:01;100436.50;;;13.57;55.10
8039;BME280;4062;49.844;8.120;2023-01-29T11:48:04;100437.34;;;13.58;55.32
8039;BME280;4062;49.844;8.120;2023-01-29T11:50:05;100441.75;;;13.59;55.45
8039;BME280;4062;49.844;8.120;2023-01-29T11:52:08;100435.50;;;13.62;55.32
8039;BME280;4062;49.844;8.120;2023-01-29T11:54:14;100435.50;;;13.63;55.20
8039;BME280;4062;49.844;8.120;2023-01-29T11:56:24;100441.63;;;13.65;55.17
8039;BME280;4062;49.844;8.120;2023-01-29T11:58:31;100435.41;;;13.66;55.17
8039;BME280;4062;49.844;8.120;2023-01-29T12:00:34;100431.84;;;13.67;54.78
8039;BME280;4062;49.844;8.120;2023-01-29T12:02:40;100428.31;;;13.68;55.17
8039;BME280;4062;49.844;8.120;2023-01-29T12:04:41;100431.84;;;13.67;55.26
8039;BME280;4062;49.844;8.120;2023-01-29T12:06:43;100430.09;;;13.68;55.34